createdAt,value
2023-02-27T00:02:54.567Z,4.20
2023-02-27T00:06:30.563Z,3.80
2023-02-27T00:10:18.855Z,4.20
2023-02-27T00:14:05.232Z,4.00
2023-02-27T00:17:53.061Z,3.40
2023-02-27T00:21:40.748Z,3.60
2023-02-27T00:25:28.360Z,4.60
2023-02-27T00:29:17.075Z,5.20
2023-02-27T00:33:05.109Z,4.60
2023-02-27T00:36:52.744Z,5.40
2023-02-27T00:40:40.360Z,6.50
2023-02-27T00:44:16.713Z,7.20
2023-02-27T00:48:04.264Z,6.90
2023-02-27T00:51:51.795Z,6.00
2023-02-27T00:55:39.336Z,6.30
2023-02-27T00:59:27.030Z,7.20
2023-02-27T01:03:14.575Z,5.50
2023-02-27T01:07:01.664Z,4.90
2023-02-27T01:10:49.426Z,6.40
2023-02-27T01:14:37.348Z,6.70
2023-02-27T01:18:27.016Z,5.50
2023-02-27T01:22:08.332Z,7.00
2023-02-27T01:25:57.275Z,6.10
2023-02-27T01:29:45.766Z,6.70
2023-02-27T01:33:33.429Z,16.30
2023-02-27T01:37:21.286Z,6.40
2023-02-27T01:41:08.937Z,30.80
2023-02-27T01:45:23.640Z,18.20
2023-02-27T01:49:36.396Z,7.00
2023-02-27T01:53:16.963Z,5.30
2023-02-27T01:57:07.216Z,5.40
2023-02-27T02:00:54.811Z,5.10
2023-02-27T02:04:42.889Z,4.50
2023-02-27T02:08:34.208Z,4.20
2023-02-27T02:12:25.710Z,4.20
2023-02-27T02:16:25.153Z,9.70
2023-02-27T02:20:28.250Z,4.70
2023-02-27T02:26:03.524Z,9.90
2023-02-27T02:30:21.014Z,7.40
2023-02-27T02:34:40.034Z,4.80
2023-02-27T02:38:41.026Z,14.70
2023-02-27T02:42:34.705Z,7.70
2023-02-27T02:46:17.797Z,8.50
2023-02-27T02:50:12.533Z,9.80
2023-02-27T02:54:47.611Z,5.80
2023-02-27T02:58:47.488Z,7.40
2023-02-27T03:02:38.835Z,7.60
2023-02-27T03:06:32.273Z,6.00
2023-02-27T03:10:27.815Z,6.60
2023-02-27T03:14:12.405Z,9.20
2023-02-27T03:18:06.626Z,11.50
2023-02-27T03:21:59.266Z,7.90
2023-02-27T03:25:47.853Z,5.00
2023-02-27T03:29:42.306Z,4.00
2023-02-27T03:33:33.367Z,5.20
2023-02-27T03:37:28.512Z,5.20
2023-02-27T03:41:25.490Z,6.40
2023-02-27T03:45:22.609Z,5.30
2023-02-27T03:49:10.577Z,5.20
2023-02-27T03:52:58.595Z,8.50
2023-02-27T03:56:51.865Z,7.00
2023-02-27T04:00:39.523Z,6.60
2023-02-27T04:04:28.568Z,5.80
2023-02-27T04:08:42.091Z,5.20
2023-02-27T04:12:54.292Z,5.30
2023-02-27T04:17:01.110Z,5.10
2023-02-27T04:20:55.547Z,5.10
2023-02-27T04:24:53.592Z,3.80
2023-02-27T04:28:46.103Z,4.40
2023-02-27T04:32:32.175Z,4.90
2023-02-27T04:36:20.274Z,4.60
2023-02-27T04:40:12.273Z,4.70
2023-02-27T04:44:01.758Z,5.10
2023-02-27T04:47:53.466Z,4.20
2023-02-27T04:51:37.866Z,4.10
2023-02-27T04:55:30.542Z,6.00
2023-02-27T04:59:11.258Z,6.10
2023-02-27T05:02:44.738Z,6.20
2023-02-27T05:06:36.878Z,4.60
2023-02-27T05:10:31.517Z,5.20
2023-02-27T05:14:17.642Z,5.90
2023-02-27T05:18:01.135Z,6.20
2023-02-27T05:21:56.220Z,8.10
2023-02-27T05:25:51.826Z,7.60
2023-02-27T05:29:48.204Z,8.10
2023-02-27T05:33:33.885Z,14.90
2023-02-27T05:37:26.858Z,10.80
2023-02-27T05:41:19.098Z,12.90
2023-02-27T05:45:12.324Z,10.70
2023-02-27T05:48:59.233Z,7.90
2023-02-27T05:52:31.801Z,8.20
2023-02-27T05:56:20.147Z,6.40
2023-02-27T06:00:03.200Z,7.70
2023-02-27T06:03:44.636Z,11.40
2023-02-27T06:07:17.425Z,14.00
2023-02-27T06:10:50.152Z,14.70
2023-02-27T06:14:25.547Z,11.00
2023-02-27T06:18:15.244Z,7.70
2023-02-27T06:21:46.831Z,7.90
2023-02-27T06:25:19.665Z,7.90
2023-02-27T06:28:57.407Z,6.90
2023-02-27T06:32:45.628Z,7.80
2023-02-27T06:36:30.559Z,8.70
2023-02-27T06:40:23.896Z,10.10
2023-02-27T06:44:14.628Z,8.80
2023-02-27T06:47:45.695Z,12.20
2023-02-27T06:51:24.494Z,7.20
2023-02-27T06:55:13.858Z,10.00
2023-02-27T06:58:51.159Z,8.90
2023-02-27T07:02:35.113Z,10.40
2023-02-27T07:06:19.567Z,7.50
2023-02-27T07:09:50.232Z,14.40
2023-02-27T07:13:21.350Z,11.80
2023-02-27T07:17:18.138Z,10.30
2023-02-27T07:20:56.376Z,14.10
2023-02-27T07:24:38.715Z,10.10
2023-02-27T07:28:26.433Z,12.00
2023-02-27T07:32:08.478Z,15.90
2023-02-27T07:35:46.582Z,12.40
2023-02-27T07:39:26.798Z,8.30
2023-02-27T07:43:05.233Z,8.80
2023-02-27T07:46:35.881Z,14.20
2023-02-27T07:50:23.646Z,12.10
2023-02-27T07:54:02.728Z,9.70
2023-02-27T07:57:40.649Z,8.70
2023-02-27T08:01:16.779Z,8.20
2023-02-27T08:04:48.101Z,6.90
2023-02-27T08:08:25.926Z,6.60
2023-02-27T08:12:04.747Z,7.70
2023-02-27T08:15:37.526Z,9.10
2023-02-27T08:19:08.683Z,7.70
2023-02-27T08:22:38.736Z,7.60
2023-02-27T08:26:16.839Z,9.10
2023-02-27T08:30:06.270Z,8.60
2023-02-27T08:33:36.644Z,8.50
2023-02-27T08:37:21.452Z,8.10
2023-02-27T08:40:53.691Z,9.10
2023-02-27T08:44:36.122Z,7.80
2023-02-27T08:48:24.956Z,9.50
2023-02-27T08:51:53.397Z,11.00
2023-02-27T08:55:34.800Z,8.80
2023-02-27T08:59:11.815Z,7.70
2023-02-27T09:02:52.286Z,9.50
2023-02-27T09:06:38.419Z,10.30
2023-02-27T09:10:17.951Z,10.40
2023-02-27T09:13:45.781Z,8.90
2023-02-27T09:17:22.262Z,7.50
2023-02-27T09:21:10.142Z,9.00
2023-02-27T09:24:52.756Z,7.40
2023-02-27T09:28:31.333Z,8.10
2023-02-27T09:32:10.721Z,8.60
2023-02-27T09:35:43.536Z,7.10
2023-02-27T09:39:26.372Z,7.70
2023-02-27T09:43:35.278Z,7.50
2023-02-27T09:47:14.789Z,18.30
2023-02-27T09:50:50.378Z,7.00
2023-02-27T09:54:26.507Z,20.80
2023-02-27T09:58:09.400Z,9.20
2023-02-27T10:02:06.886Z,4.90
2023-02-27T10:05:55.172Z,4.50
2023-02-27T10:09:44.399Z,6.30
2023-02-27T10:13:31.873Z,4.90
2023-02-27T10:17:12.177Z,6.30
2023-02-27T10:20:56.920Z,8.80
2023-02-27T10:24:48.783Z,4.70
2023-02-27T10:28:24.953Z,9.90
2023-02-27T10:32:12.011Z,13.00
2023-02-27T10:35:52.148Z,9.40
2023-02-27T10:39:51.521Z,5.70
2023-02-27T10:43:23.066Z,4.40
2023-02-27T10:47:16.559Z,3.30
2023-02-27T10:50:53.777Z,44.30
2023-02-27T10:54:31.906Z,7.60
2023-02-27T10:58:19.923Z,6.90
2023-02-27T11:01:53.796Z,8.40
2023-02-27T11:05:40.928Z,3.40
2023-02-27T11:09:23.940Z,5.10
2023-02-27T11:13:10.894Z,3.40
2023-02-27T11:16:55.113Z,4.80
2023-02-27T11:20:43.621Z,15.90
2023-02-27T11:24:23.120Z,5.60
2023-02-27T11:28:25.570Z,4.00
2023-02-27T11:31:59.374Z,8.70
2023-02-27T11:35:35.635Z,3.00
2023-02-27T11:39:06.068Z,1.70
2023-02-27T11:42:38.276Z,2.90
2023-02-27T11:46:46.627Z,2.90
2023-02-27T11:50:29.860Z,3.40
2023-02-27T11:54:22.016Z,2.90
2023-02-27T11:58:16.302Z,4.60
2023-02-27T12:02:12.549Z,4.20
2023-02-27T12:05:54.429Z,3.80
2023-02-27T12:09:45.636Z,3.20
2023-02-27T12:13:37.065Z,2.80
2023-02-27T12:17:30.246Z,2.40
2023-02-27T12:21:17.543Z,12.50
2023-02-27T12:24:56.723Z,11.70
2023-02-27T12:28:53.007Z,7.90
2023-02-27T12:32:45.757Z,12.00
2023-02-27T12:36:28.224Z,8.70
2023-02-27T12:40:20.678Z,7.60
2023-02-27T12:44:04.288Z,9.50
2023-02-27T12:47:52.618Z,8.70
2023-02-27T12:51:51.690Z,25.10
2023-02-27T12:55:32.803Z,7.50
2023-02-27T12:59:09.427Z,6.10
2023-02-27T13:03:00.457Z,5.00
2023-02-27T13:06:51.453Z,7.00
2023-02-27T13:10:33.451Z,16.80
2023-02-27T13:14:24.660Z,7.20
2023-02-27T13:18:03.372Z,5.10
2023-02-27T13:21:56.596Z,9.30
2023-02-27T13:25:39.831Z,6.80
2023-02-27T13:29:39.555Z,4.10
2023-02-27T13:33:23.820Z,2.70
2023-02-27T13:37:05.625Z,2.80
2023-02-27T13:40:53.431Z,3.30
2023-02-27T13:44:50.982Z,2.90
2023-02-27T13:48:42.529Z,10.90
2023-02-27T13:52:32.520Z,5.40
2023-02-27T13:56:23.207Z,4.00
2023-02-27T14:00:05.291Z,5.00
2023-02-27T14:03:43.665Z,3.90
2023-02-27T14:07:27.169Z,3.50
2023-02-27T14:11:02.845Z,4.20
2023-02-27T14:14:53.377Z,3.60
2023-02-27T14:18:58.214Z,7.10
2023-02-27T14:23:20.703Z,6.50
2023-02-27T14:26:55.565Z,6.20
2023-02-27T14:30:42.073Z,12.20
2023-02-27T14:34:21.536Z,6.30
2023-02-27T14:37:49.256Z,4.60
2023-02-27T14:41:38.172Z,9.50
2023-02-27T14:45:20.401Z,5.50
2023-02-27T14:49:19.399Z,4.90
2023-02-27T14:52:52.764Z,7.60
2023-02-27T14:56:29.281Z,4.00
2023-02-27T15:00:22.828Z,3.60
2023-02-27T15:04:02.476Z,2.30
2023-02-27T15:07:35.270Z,3.40
2023-02-27T15:11:20.576Z,5.90
2023-02-27T15:14:58.130Z,4.60
2023-02-27T15:18:28.934Z,4.10
2023-02-27T15:22:05.682Z,2.50
2023-02-27T15:25:36.771Z,3.30
2023-02-27T15:29:10.087Z,4.30
2023-02-27T15:32:44.544Z,5.10
2023-02-27T15:36:26.929Z,4.50
2023-02-27T15:40:09.196Z,5.30
2023-02-27T15:43:39.896Z,6.40
2023-02-27T15:47:15.040Z,6.80
2023-02-27T15:50:48.807Z,5.90
2023-02-27T15:54:22.323Z,11.80
2023-02-27T15:58:03.784Z,5.40
2023-02-27T16:01:53.219Z,4.50
2023-02-27T16:05:36.233Z,7.30
2023-02-27T16:09:26.083Z,9.30
2023-02-27T16:12:57.697Z,9.30
2023-02-27T16:16:56.816Z,8.20
2023-02-27T16:20:47.806Z,8.80
2023-02-27T16:24:34.557Z,9.20
2023-02-27T16:28:05.675Z,9.40
2023-02-27T16:31:57.049Z,8.10
2023-02-27T16:35:36.143Z,9.50
2023-02-27T16:39:15.487Z,12.80
2023-02-27T16:42:48.908Z,13.80
2023-02-27T16:46:36.628Z,16.90
2023-02-27T16:50:21.646Z,18.30
2023-02-27T16:53:58.543Z,17.20
2023-02-27T16:57:35.123Z,17.30
2023-02-27T17:01:25.509Z,22.20
2023-02-27T17:05:10.330Z,23.40
2023-02-27T17:08:52.904Z,23.00
2023-02-27T17:12:29.168Z,21.00
2023-02-27T17:16:18.676Z,17.80
2023-02-27T17:19:49.422Z,20.60
2023-02-27T17:23:21.569Z,21.60
2023-02-27T17:26:52.601Z,52.80
2023-02-27T17:30:21.207Z,111.60
2023-02-27T17:33:48.723Z,40.80
2023-02-27T17:37:22.265Z,28.20
2023-02-27T17:44:40.343Z,34.60
2023-02-27T17:48:10.962Z,40.60
2023-02-27T17:51:43.626Z,50.40
2023-02-27T17:55:32.084Z,64.90
2023-02-27T18:02:31.240Z,47.00
2023-02-27T18:05:59.031Z,50.40
2023-02-27T18:09:33.813Z,45.60
2023-02-27T18:13:12.709Z,37.60
2023-02-27T18:16:51.761Z,37.10
2023-02-27T18:20:40.492Z,37.80
2023-02-27T18:24:18.363Z,49.60
2023-02-27T18:27:48.645Z,41.90
2023-02-27T18:31:27.720Z,42.80
2023-02-27T18:35:03.740Z,51.90
2023-02-27T18:38:42.309Z,54.60
2023-02-27T18:42:20.422Z,50.70
2023-02-27T18:45:55.800Z,48.10
2023-02-27T18:49:36.250Z,47.80
2023-02-27T18:53:13.863Z,57.00
2023-02-27T18:56:53.214Z,54.20
2023-02-27T19:00:37.724Z,42.70
2023-02-27T19:04:10.918Z,62.60
2023-02-27T19:07:46.228Z,65.60
2023-02-27T19:11:28.656Z,44.70
2023-02-27T19:15:01.177Z,45.90
2023-02-27T19:18:37.738Z,65.70
2023-02-27T19:22:14.377Z,41.70
2023-02-27T19:25:47.756Z,43.50
2023-02-27T19:29:35.447Z,38.70
2023-02-27T19:33:02.705Z,57.70
2023-02-27T19:36:34.680Z,72.60
2023-02-27T19:40:22.939Z,55.30
2023-02-27T19:43:56.264Z,39.70
2023-02-27T19:47:26.695Z,39.80
2023-02-27T19:50:56.907Z,42.60
2023-02-27T19:54:30.757Z,41.60
2023-02-27T19:58:21.449Z,41.30
2023-02-27T20:01:54.962Z,41.40
2023-02-27T20:05:37.966Z,45.70
2023-02-27T20:09:18.649Z,47.80
2023-02-27T20:12:49.455Z,48.70
2023-02-27T20:16:37.598Z,42.70
2023-02-27T20:20:14.404Z,38.20
2023-02-27T20:24:02.565Z,42.90
2023-02-27T20:27:36.233Z,40.00
2023-02-27T20:31:27.635Z,52.40
2023-02-27T20:35:21.094Z,49.50
2023-02-27T20:39:03.831Z,27.40
2023-02-27T20:42:41.261Z,31.50
2023-02-27T20:46:31.575Z,37.10
2023-02-27T20:49:59.039Z,38.70
2023-02-27T20:53:26.975Z,40.30
2023-02-27T20:56:54.674Z,35.40
2023-02-27T21:00:31.478Z,30.30
2023-02-27T21:04:02.711Z,30.10
2023-02-27T21:07:39.217Z,37.60
2023-02-27T21:11:18.804Z,35.50
2023-02-27T21:14:56.666Z,32.40
2023-02-27T21:18:45.174Z,28.30
2023-02-27T21:22:17.301Z,32.10
2023-02-27T21:25:58.713Z,32.00
2023-02-27T21:29:31.043Z,32.70
2023-02-27T21:33:07.398Z,63.70
2023-02-27T21:36:55.480Z,42.30
2023-02-27T21:40:27.159Z,43.30
2023-02-27T21:44:17.202Z,33.70
2023-02-27T21:47:54.844Z,28.20
2023-02-27T21:51:38.345Z,26.20
2023-02-27T21:55:18.143Z,25.00
2023-02-27T21:58:56.173Z,28.60
2023-02-27T22:02:23.859Z,32.20
2023-02-27T22:06:00.588Z,26.00
2023-02-27T22:09:53.145Z,24.90
2023-02-27T22:13:32.306Z,22.50
2023-02-27T22:17:34.508Z,22.10
2023-02-27T22:21:25.428Z,25.20
2023-02-27T22:25:15.080Z,26.80
2023-02-27T22:28:56.419Z,22.40
2023-02-27T22:32:33.759Z,21.50
2023-02-27T22:36:11.228Z,21.70
2023-02-27T22:39:41.594Z,20.30
2023-02-27T22:43:14.041Z,19.70
2023-02-27T22:46:47.157Z,18.50
2023-02-27T22:50:27.725Z,19.90
2023-02-27T22:54:01.558Z,21.80
2023-02-27T22:57:34.443Z,19.00
2023-02-27T23:01:18.499Z,21.70
2023-02-27T23:04:49.361Z,22.90
2023-02-27T23:08:47.019Z,23.40
2023-02-27T23:12:45.249Z,28.40
2023-02-27T23:16:22.075Z,27.80
2023-02-27T23:20:00.552Z,26.10
2023-02-27T23:23:41.918Z,24.70
2023-02-27T23:27:29.280Z,24.10
2023-02-27T23:31:10.494Z,22.80
2023-02-27T23:34:49.601Z,25.00
2023-02-27T23:38:37.704Z,24.80
2023-02-27T23:42:25.102Z,29.00
2023-02-27T23:46:15.522Z,27.70
2023-02-27T23:49:52.287Z,29.60
2023-02-27T23:53:25.142Z,31.40
2023-02-27T23:57:12.641Z,27.70
